World of Logs combat log analyzer allows gamers to save, share and analyze their raiding experiences conveniently and thoroughly in the Blizzard MMO World of Warcraft. If you're new here, make sure you check out the tour for a 1 minute introduction. If you have any questions, we're happy to answer them on the forums.

DPS HPS
Odyn
Helya
Guarm
Reports for Helya - statistics
# Date Time Damage DPS Guild Realm
1 07 Mar 2017 02:34 2467.29M 15939070.7 Stoneblood US-Zul'jin
2 10 Feb 2017 03:11 1688.71M 8831867.8 mixed EU-Blackrock
3 25 Jan 2017 03:17 2491.42M 12645511.8 We Smoke Fel Weêd EU-Kazzak
4 08 Mar 2017 03:27 1681.37M 8098089.6 Snurkfizzle Cartel EU-Ravencrest
5 19 Mar 2017 04:32 1405.47M 5151805.7 Glørify EU-Hyjal
6 01 Mar 2017 04:37 1551.10M 5582121.0 Honor System Refugees US-Elune
7 24 Feb 2017 04:46 1328.63M 4633590.0 Tal der Wölfe EU-Malfurion
8 18 Feb 2017 04:55 1035.13M 3502983.6 Blackened Demise US-Bleeding Hollow
9 18 Feb 2017 04:55 1035.13M 3502983.6 Blackened Demise US-Bleeding Hollow
10 03 Mar 2017 04:58 1684.40M 5650144.2 Legenda EU-Silvermoon
11 11 Jan 2017 05:01 1685.45M 5590715.8 Fantasy EU-Азурегос
12 27 Jan 2017 05:07 1782.73M 5793324.0 Drewslogs US-Sargeras
13 11 Jan 2017 05:10 1601.04M 5164133.5 AllQuestforFun EU-Perenolde
14 11 Feb 2017 05:23 1596.60M 4941367.4 Silverblade EU-Frostmane
15 19 Mar 2017 05:26 1041.31M 3184974.9 Avengers of the Storm EU-Tyrande
16 15 Feb 2017 05:32 1644.29M 4952100.4 Stoneblood US-Zul'jin
17 30 Dec 2016 05:35 1328.20M 3955889.6 Silent Agony EU-Kirin Tor
18 01 Feb 2017 05:35 1736.68M 5169281.4 Untitled EU-Sylvanas
19 24 Feb 2017 05:39 1342.20M 3950526.8 Dark Times EU-Aggra
20 28 Dec 2016 05:43 1915.44M 5572307.3 AllQuestforFun EU-Perenolde
21 29 Jan 2017 05:45 1939.88M 5622624.8 The Fallen US-Dath'Remar
22 06 Feb 2017 05:46 1433.89M 4135703.1 Eau Pastis Olives EU-Garona
23 22 Jan 2017 05:50 2344.01M 6689650.9 Drewslogs US-Sargeras
24 22 Jan 2017 05:50 2235.01M 6376217.6 The Fallen US-Dath'Remar
25 04 Jan 2017 05:51 1754.16M 4986784.1 AllQuestforFun EU-Perenolde
26 06 Feb 2017 05:54 1141.80M 3222598.1 thenewfamilly EU-Uldaman
27 29 Dec 2016 05:56 1327.37M 3728405.2 Drewslogs US-Sargeras
28 11 Mar 2017 05:57 1018.18M 2847749.6 Studs and Stouts US-Greymane
29 16 Jan 2017 05:58 829.88M 2316803.9 Panopticon EU-Ragnaros
30 08 Jan 2017 05:58 927.33M 2585163.3 Sloppylock US-Stormrage
31 14 Jan 2017 06:00 1744.58M 4837561.5 Death Legion US-Kilrogg
32 05 Jan 2017 06:02 1382.19M 3816488.3 titans gone wild US-Exodar
33 12 Mar 2017 06:03 930.41M 2557894.9 Mystic Dragons EU-Arygos
34 11 Jan 2017 06:03 1441.50M 3960772.1 Minatory EU-Eredar
35 12 Jan 2017 06:07 1132.58M 3085664.3 Eclipsatio Lunaris EU-Mal'Ganis
36 02 Feb 2017 06:08 1542.50M 4183403.4 Solidarity EU-Silvermoon
37 07 Mar 2017 06:08 1238.04M 3357217.0 parva famila EU-Blackhand
38 11 Jan 2017 06:10 927.81M 2505025.7 Pandæmonium EU-Die ewige Wacht
39 19 Feb 2017 06:11 2137.98M 5760975.5 Chakra US-Bladefist
40 08 Jan 2017 06:16 1615.65M 4292919.6 Paradox EU-Dun Modr
41 10 Mar 2017 06:16 2051.22M 5441113.9 Kreuzzug der Ehre EU-Blackhand
42 09 Jan 2017 06:17 1227.71M 3254515.9 Grey Wolves EU-Uldum
43 12 Jan 2017 06:18 2337.43M 6182618.7 Stoneblood US-Zul'jin
44 22 Dec 2016 06:19 1221.21M 3220253.6 Жизнь Удалась EU-Голдринн
45 12 Jan 2017 06:20 1434.30M 3768113.0 Fateful Encounter US-Area 52
46 06 Jan 2017 06:21 2010.54M 5268799.0 The Fallen US-Dath'Remar
47 28 Jan 2017 06:21 1864.87M 4882262.7 Refusion EU-Grim Batol
48 18 Feb 2017 06:22 1237.09M 3234889.5 Immature Kiddies EU-Hellscream
49 12 Feb 2017 06:22 1737.72M 4538178.3 The Fallen US-Dath'Remar
50 15 Jan 2017 06:23 2041.94M 5327914.3 Censored US-Sargeras
51 11 Jan 2017 06:23 1940.76M 5062864.6 Mannisch Depressiv EU-Kargath
52 11 Jan 2017 06:23 1031.95M 2691077.2 Hangover EU-Argent Dawn
53 15 Jan 2017 06:25 1789.01M 4641095.9 Mercenary EU-Anetheron
54 27 Jan 2017 06:25 1214.43M 3147170.0 EU-Nozdormu
55 05 Feb 2017 06:26 1542.93M 3997203.0 The Fallen US-Dath'Remar
56 10 Jan 2017 06:26 2231.80M 5773719.7 Adventuring Academy US-Kel'Thuzad
57 13 Feb 2017 06:28 1326.94M 3419480.8 Eau Pastis Olives EU-Garona
58 13 Jan 2017 06:28 1332.37M 3429610.1 Drewslogs US-Sargeras
59 21 Dec 2016 06:29 1922.70M 4938804.8 AllQuestforFun EU-Perenolde
60 08 Jan 2017 06:30 1056.56M 2708214.8 Old Fellows EU-Blackmoore
61 15 Jan 2017 06:30 1834.65M 4696428.0 Immortal Guardians EU-Dun Morogh
62 26 Feb 2017 06:31 1260.19M 3221971.8 TeamKnusprig EU-Aegwynn
63 29 Dec 2016 06:32 1813.41M 4614347.8 Anorya EU-Aman'Thul
64 27 Jan 2017 06:34 1637.59M 4149518.0 Annihilation US-Llane
65 25 Jan 2017 06:34 2348.88M 5947031.2 Eternal Fíre EU-Alonsus
66 11 Jan 2017 06:35 1267.28M 3207192.8 Возрождение EU-Азурегос
67 16 Jan 2017 06:35 1436.86M 3633118.6 Tasty Beverage US-Bleeding Hollow
68 06 Jan 2017 06:36 1224.26M 3087278.8 Old Fellows EU-Blackmoore
69 04 Jan 2017 06:37 1420.53M 3576507.0 Annihilation US-Llane
70 15 Jan 2017 06:37 1839.27M 4622489.5 Воины Вальгаллы EU-Вечная Песня
71 10 Jan 2017 06:39 1255.77M 3144440.3 The Shattered Union US-Hyjal
72 12 Jan 2017 06:39 1231.92M 3081236.4 Zug Life US-Draka
73 12 Jan 2017 06:41 1131.59M 2820957.1 MIAG EU-Drak'thul
74 04 Jan 2017 06:41 1937.15M 4823085.1 Angels of Light EU-Arthas
75 13 Feb 2017 06:42 1867.25M 4642481.3 Nanawa EU-Blackrock
76 29 Dec 2016 06:43 1029.22M 2549556.5 Кредо EU-Гордунни
77 09 Nov 2016 06:45 2039.72M 5032459.7 Eclypsia TV EU-Ysondre
78 10 Jan 2017 06:45 1433.08M 3531119.4 Severed US-Llane
79 26 Jan 2017 06:46 2095.84M 5157902.0 Templars of the Rose US-Earthen Ring
80 16 Jan 2017 06:48 1359.35M 3330894.6 Angels of Light EU-Arthas
81 15 Jan 2017 06:48 1732.84M 4241519.0 Scotch and Soda US-Whisperwind
82 27 Dec 2016 06:48 1248.75M 3053532.6 Rëtribution US-Arthas
83 27 Dec 2016 06:48 1248.75M 3053532.6 Rëtribution US-Arthas
84 20 Dec 2016 06:49 1243.97M 3035136.7 Vagrants US-Turalyon
85 22 Dec 2016 06:51 1346.42M 3272707.6 Fateful Encounter US-Area 52
86 09 Nov 2016 06:51 3053.13M 7411952.9 Aspects EU-Elune
87 08 Jan 2017 06:56 1377.77M 3307353.3 Devine EU-Hyjal
88 05 Jan 2017 06:56 1826.14M 4383141.5 Where is Sam US-Thrall
89 05 Jan 2017 06:56 1468.50M 3521629.6 Кредо EU-Гордунни
90 17 Feb 2017 06:58 1484.97M 3546153.3 Рожденные в С С С Р EU-Ткач Смерти
91 21 Dec 2016 07:00 1681.50M 4001343.6 Devine EU-Hyjal
92 15 Dec 2016 07:02 1691.84M 4003253.1 Linergy EU-Hyjal
93 04 Jan 2017 07:04 1351.47M 3180317.9 Fateful Encounter US-Area 52
94 13 Jan 2017 07:05 1171.64M 2753317.8 Elysium EU-Elune
95 04 Jan 2017 07:05 1170.82M 2751395.0 Carried US-Arthas
96 09 Feb 2017 07:05 1159.65M 2723551.6 Origyne EU-Confrérie du Thorium
97 29 Dec 2016 07:06 1455.04M 3411949.5 Lunae EU-Silvermoon
98 01 Feb 2017 07:06 1068.75M 2504200.5 Vampires Dês Hydoor US-Ragnaros
99 09 Jan 2017 07:07 1178.18M 2754995.6 NoName US-Goldrinn
100 12 Jan 2017 07:08 1258.24M 2935008.1 Lucid Dream EU-Bronze Dragonflight

Please do not close the page with the ad you want to report.

I've posted a guide on how to report misbehaving ads on the forum. Please follow the instructions and help make the internet a safer place. Thanks for you time.